createdAt,value
2023-04-24T00:00:02.687Z,0
2023-04-24T00:15:02.913Z,0
2023-04-24T00:30:02.370Z,0
2023-04-24T00:45:02.803Z,0
2023-04-24T01:00:03.268Z,0
2023-04-24T01:15:02.697Z,0
2023-04-24T01:30:03.132Z,0
2023-04-24T01:45:02.741Z,0
2023-04-24T02:00:02.992Z,0
2023-04-24T02:15:02.458Z,0
2023-04-24T02:30:02.885Z,0
2023-04-24T02:45:02.302Z,0
2023-04-24T03:00:02.775Z,0
2023-04-24T03:15:03.223Z,0
2023-04-24T03:30:02.735Z,0
2023-04-24T03:45:03.102Z,0
2023-04-24T04:00:02.728Z,0
2023-04-24T04:15:02.965Z,0
2023-04-24T04:30:02.436Z,0
2023-04-24T04:45:02.866Z,2
2023-04-24T05:00:02.315Z,5
2023-04-24T05:15:02.740Z,21
2023-04-24T05:30:03.186Z,34
2023-04-24T05:45:02.749Z,85
2023-04-24T06:00:03.095Z,101
2023-04-24T06:15:02.732Z,234
2023-04-24T06:30:02.947Z,99
2023-04-24T06:45:02.342Z,28
2023-04-24T07:00:02.984Z,80
2023-04-24T07:15:02.217Z,57
2023-04-24T07:30:02.757Z,41
2023-04-24T07:45:03.162Z,105
2023-04-24T08:00:02.766Z,100
2023-04-24T08:15:03.009Z,31
2023-04-24T08:30:02.427Z,95
2023-04-24T08:45:02.879Z,96
2023-04-24T09:00:02.323Z,67
2023-04-24T09:15:02.781Z,70
2023-04-24T09:30:02.190Z,49
2023-04-24T10:00:02.061Z,149
2023-04-24T10:15:02.517Z,232
2023-04-24T10:30:02.959Z,146
2023-04-24T10:45:02.382Z,55
2023-04-24T11:00:03.109Z,37
2023-04-24T11:15:03.665Z,55
2023-04-24T11:30:02.982Z,49
2023-04-24T11:45:03.464Z,39
2023-04-24T12:00:02.800Z,123
2023-04-24T12:15:02.336Z,101
2023-04-24T12:30:03.400Z,88
2023-04-24T12:45:02.840Z,129
2023-04-24T13:00:02.278Z,195
2023-04-24T13:15:02.834Z,25
2023-04-24T13:30:02.293Z,101
2023-04-24T13:45:11.081Z,258
2023-04-24T14:00:03.027Z,223
2023-04-24T14:15:02.490Z,199
2023-04-24T14:30:03.045Z,52
2023-04-24T14:45:02.306Z,18
2023-04-24T15:00:02.857Z,102
2023-04-24T15:15:02.230Z,76
2023-04-24T15:30:02.838Z,31
2023-04-24T15:45:02.084Z,80
2023-04-24T16:00:02.545Z,40
2023-04-24T16:15:02.978Z,21
2023-04-24T16:30:02.426Z,282
2023-04-24T16:45:02.864Z,250
2023-04-24T17:00:02.260Z,33
2023-04-24T17:15:02.883Z,63
2023-04-24T17:30:02.162Z,24
2023-04-24T17:45:02.610Z,0
2023-04-24T18:00:03.042Z,9
2023-04-24T18:15:13.607Z,10
2023-04-24T18:45:02.332Z,0
2023-04-24T19:00:02.886Z,0
2023-04-24T19:15:02.208Z,0
2023-04-24T19:30:02.891Z,0
2023-04-24T19:45:02.085Z,0
2023-04-24T20:00:02.548Z,0
2023-04-24T20:15:02.960Z,0
2023-04-24T20:30:02.434Z,0
2023-04-24T20:45:02.926Z,0
2023-04-24T21:00:02.268Z,0
2023-04-24T21:15:02.932Z,0
2023-04-24T21:30:02.181Z,0
2023-04-24T21:45:02.652Z,0
2023-04-24T22:00:03.071Z,0
2023-04-24T22:30:02.944Z,0
2023-04-24T22:45:02.322Z,0
2023-04-24T23:00:02.918Z,0
2023-04-24T23:15:02.198Z,0
2023-04-24T23:30:02.616Z,0
2023-04-24T23:45:03.099Z,0
